KMIC/MIC METAR and TAF weather

Enter ICAO airport designator
Station Type Date Time Source
KMIC METAR 2020/07/05 16:53 UTC NOAA

KMIC 051653Z 22008KT 10SM CLR 32/20 A2996 RMK AO2 SLP139 T03170200


Station Type Date Time Source
KMIC Decoded METAR 2020/07/05 16:53 UTC NOAA

CRYSTAL AIRPORT, MN, United States (KMIC) 45-04N 093-21W 265M
Jul 05, 2020 - 12:53 PM EDT / 2020.07.05 1653 UTC
Wind: from the SW (220 degrees) at 9 MPH (8 KT):0
Visibility: 10 mile(s):0
Sky conditions: clear
Temperature: 89.1 F (31.7 C)
Dew Point: 68.0 F (20.0 C)
Relative Humidity: 49%
Pressure (altimeter): 29.96 in. Hg (1014 hPa)
ob: KMIC 051653Z 22008KT 10SM CLR 32/20 A2996 RMK AO2 SLP139 T03170200
cycle: 17

Station Type Date Time Source
KMIC TAF UTC NOAA

Error!

Example: see airport list